createdAt,value
2019-01-19T00:00:10.455Z,68.9
2019-01-19T00:00:50.862Z,69
2019-01-19T00:01:31.476Z,69
2019-01-19T00:02:12.144Z,69
2019-01-19T00:02:52.790Z,68.9
2019-01-19T00:03:33.422Z,68.9
2019-01-19T00:04:14.134Z,68.8
2019-01-19T00:04:54.752Z,68.8
2019-01-19T00:05:35.358Z,68.9
2019-01-19T00:06:16.347Z,68.8
2019-01-19T00:06:56.786Z,68.9
2019-01-19T00:07:37.398Z,68.71
2019-01-19T00:08:18.322Z,69
2019-01-19T00:08:58.675Z,68.71
2019-01-19T00:09:39.278Z,68.8
2019-01-19T00:10:20.055Z,69
2019-01-19T00:11:00.704Z,68.71
2019-01-19T00:11:41.382Z,68.71
2019-01-19T00:12:22.004Z,68.71
2019-01-19T00:13:02.692Z,68.71
2019-01-19T00:13:43.322Z,68.8
2019-01-19T00:14:24.074Z,68.8
2019-01-19T00:15:04.750Z,69.09
2019-01-19T00:15:45.372Z,68.9
2019-01-19T00:16:25.990Z,68.9
2019-01-19T00:17:06.619Z,69
2019-01-19T00:17:47.669Z,68.8
2019-01-19T00:18:28.028Z,69
2019-01-19T00:19:08.638Z,68.8
2019-01-19T00:19:49.434Z,68.8
2019-01-19T00:20:29.953Z,69
2019-01-19T00:21:10.614Z,69
2019-01-19T00:21:51.270Z,69
2019-01-19T00:22:32.284Z,68.8
2019-01-19T00:23:12.823Z,69
2019-01-19T00:23:53.514Z,69
2019-01-19T00:24:34.168Z,68.8
2019-01-19T00:25:14.834Z,68.8
2019-01-19T00:25:55.458Z,68.9
2019-01-19T00:26:36.079Z,69
2019-01-19T00:27:16.676Z,68.8
2019-01-19T00:27:57.330Z,68.9
2019-01-19T00:28:37.935Z,69
2019-01-19T00:29:19.173Z,68.9
2019-01-19T00:29:59.764Z,69.19
2019-01-19T00:30:40.415Z,69.09
2019-01-19T00:31:21.016Z,69.09
2019-01-19T00:32:01.654Z,68.8
2019-01-19T00:32:42.266Z,69
2019-01-19T00:33:23.079Z,68.9
2019-01-19T00:34:03.678Z,69
2019-01-19T00:34:44.292Z,69
2019-01-19T00:35:24.918Z,69
2019-01-19T00:36:05.596Z,69.09
2019-01-19T00:36:46.230Z,69.09
2019-01-19T00:37:26.840Z,68.9
2019-01-19T00:38:07.476Z,69.09
2019-01-19T00:38:48.148Z,69
2019-01-19T00:39:28.778Z,68.9
2019-01-19T00:40:09.396Z,69.09
2019-01-19T00:40:50.160Z,69.09
2019-01-19T00:41:30.754Z,69
2019-01-19T00:42:11.378Z,69
2019-01-19T00:42:52.211Z,69.09
2019-01-19T00:43:32.682Z,68.71
2019-01-19T00:44:13.526Z,69.09
2019-01-19T00:44:54.000Z,69
2019-01-19T00:45:34.624Z,68.71
2019-01-19T00:46:15.246Z,68.8
2019-01-19T00:46:55.864Z,68.8
2019-01-19T00:47:36.494Z,69.09
2019-01-19T00:48:17.234Z,68.52
2019-01-19T00:48:57.848Z,68.42
2019-01-19T00:49:38.476Z,68.62
2019-01-19T00:50:19.116Z,69
2019-01-19T00:50:59.740Z,69.19
2019-01-19T00:51:40.362Z,68.62
2019-01-19T00:52:21.002Z,68.71
2019-01-19T00:53:01.652Z,68.52
2019-01-19T00:53:42.286Z,68.33
2019-01-19T00:54:22.902Z,68.23
2019-01-19T00:55:03.578Z,68.62
2019-01-19T00:55:44.186Z,68.62
2019-01-19T00:56:24.822Z,68.23
2019-01-19T00:57:05.454Z,68.33
2019-01-19T00:57:46.066Z,68.23
2019-01-19T00:58:26.826Z,68.62
2019-01-19T00:59:07.489Z,69
2019-01-19T00:59:48.362Z,68.33
2019-01-19T01:00:28.980Z,68.33
2019-01-19T01:01:09.625Z,68.52
2019-01-19T01:01:50.286Z,68.13
2019-01-19T01:02:30.933Z,68.52
2019-01-19T01:03:11.544Z,68.13
2019-01-19T01:03:52.193Z,68.33
2019-01-19T01:04:33.414Z,68.33
2019-01-19T01:06:23.396Z,68.13
2019-01-19T01:07:04.084Z,68.52
2019-01-19T01:07:44.726Z,68.33
2019-01-19T01:08:25.340Z,68.42
2019-01-19T01:09:05.952Z,68.62
2019-01-19T01:09:46.580Z,68.52
2019-01-19T01:10:27.196Z,68.52
2019-01-19T01:11:07.896Z,68.42
2019-01-19T01:11:48.520Z,68.62
2019-01-19T01:12:29.132Z,68.23
2019-01-19T01:13:09.756Z,68.62
2019-01-19T01:13:50.392Z,68.42
2019-01-19T01:14:31.032Z,68.8
2019-01-19T01:15:11.621Z,68.62
2019-01-19T01:15:52.284Z,68.23
2019-01-19T01:16:32.900Z,68.42
2019-01-19T01:17:13.552Z,68.52
2019-01-19T01:17:54.150Z,68.42
2019-01-19T01:18:34.776Z,68.52
2019-01-19T01:19:15.382Z,68.33
2019-01-19T01:19:56.038Z,68.52
2019-01-19T01:20:36.656Z,68.42
2019-01-19T01:21:17.367Z,68.62
2019-01-19T01:21:57.992Z,68.8
2019-01-19T01:22:38.604Z,68.33
2019-01-19T01:23:19.216Z,68.42
2019-01-19T01:23:59.852Z,68.52
2019-01-19T01:24:40.480Z,68.71
2019-01-19T01:25:21.138Z,68.33
2019-01-19T01:26:01.761Z,68.33
2019-01-19T01:26:42.392Z,68.13
2019-01-19T01:27:22.998Z,68.13
2019-01-19T01:28:03.666Z,67.94
2019-01-19T01:28:44.317Z,68.13
2019-01-19T01:29:24.994Z,67.76
2019-01-19T01:30:05.578Z,68.33
2019-01-19T01:30:46.184Z,68.04
2019-01-19T01:31:26.787Z,68.04
2019-01-19T01:32:07.426Z,68.13
2019-01-19T01:32:48.028Z,67.94
2019-01-19T01:33:28.706Z,67.94
2019-01-19T01:34:09.302Z,67.94
2019-01-19T01:34:49.918Z,68.04
2019-01-19T01:35:32.686Z,68.04
2019-01-19T01:36:11.152Z,67.94
2019-01-19T01:36:51.797Z,68.23
2019-01-19T01:37:32.410Z,67.85
2019-01-19T01:38:13.028Z,68.13
2019-01-19T01:38:53.646Z,67.94
2019-01-19T01:39:34.250Z,68.13
2019-01-19T01:40:14.854Z,68.13
2019-01-19T01:40:55.471Z,67.85
2019-01-19T01:41:36.088Z,68.33
2019-01-19T01:42:16.721Z,68.04
2019-01-19T01:42:57.315Z,68.04
2019-01-19T01:43:37.919Z,67.94
2019-01-19T01:44:18.593Z,68.23
2019-01-19T01:44:59.209Z,68.23
2019-01-19T01:45:39.834Z,67.85
2019-01-19T01:46:20.468Z,67.85
2019-01-19T01:47:01.079Z,68.13
2019-01-19T01:47:41.714Z,67.94
2019-01-19T01:48:22.363Z,68.04
2019-01-19T01:49:02.986Z,68.04
2019-01-19T01:49:43.585Z,67.56
2019-01-19T01:50:24.238Z,67.47
2019-01-19T01:51:04.821Z,68.04
2019-01-19T01:51:45.442Z,67.94
2019-01-19T01:52:26.046Z,67.94
2019-01-19T01:53:06.654Z,67.56
2019-01-19T01:53:47.287Z,67.66
2019-01-19T01:54:27.910Z,67.85
2019-01-19T01:55:08.570Z,68.04
2019-01-19T01:55:49.216Z,67.94
2019-01-19T01:56:29.833Z,68.13
2019-01-19T01:57:10.416Z,67.66
2019-01-19T01:57:51.024Z,67.76
2019-01-19T01:58:31.670Z,68.33
2019-01-19T01:59:12.294Z,68.23
2019-01-19T01:59:52.946Z,67.85
2019-01-19T02:00:33.570Z,68.42
2019-01-19T02:01:14.180Z,68.04
2019-01-19T02:01:54.797Z,67.85
2019-01-19T02:02:35.420Z,67.85
2019-01-19T02:03:16.062Z,67.76
2019-01-19T02:03:56.673Z,67.66
2019-01-19T02:04:37.335Z,68.33
2019-01-19T02:05:18.004Z,68.23
2019-01-19T02:05:58.637Z,68.33
2019-01-19T02:06:39.269Z,68.23
2019-01-19T02:07:19.899Z,67.66
2019-01-19T02:08:00.534Z,67.85
2019-01-19T02:08:41.188Z,67.66
2019-01-19T02:09:21.804Z,67.85
2019-01-19T02:10:02.415Z,67.56
2019-01-19T02:10:43.023Z,67.56
2019-01-19T02:11:23.655Z,68.04
2019-01-19T02:12:04.246Z,67.47
2019-01-19T02:12:44.897Z,67.66
2019-01-19T02:13:25.506Z,67.94
2019-01-19T02:14:06.149Z,67.56
2019-01-19T02:14:46.780Z,67.94
2019-01-19T02:15:27.404Z,67.47
2019-01-19T02:16:08.040Z,67.76
2019-01-19T02:16:48.663Z,67.76
2019-01-19T02:17:29.273Z,67.56
2019-01-19T02:18:09.907Z,67.37
2019-01-19T02:18:50.556Z,67.47
2019-01-19T02:19:31.173Z,67.47
2019-01-19T02:20:11.790Z,67.56
2019-01-19T02:20:52.422Z,67.56
2019-01-19T02:21:33.064Z,67.47
2019-01-19T02:22:13.701Z,67.66
2019-01-19T02:22:54.330Z,67.66
2019-01-19T02:23:34.918Z,67.66
2019-01-19T02:24:15.559Z,67.94
2019-01-19T02:24:56.141Z,67.56
2019-01-19T02:25:36.770Z,67.85
2019-01-19T02:26:17.400Z,67.27
2019-01-19T02:26:58.042Z,67.27
2019-01-19T02:27:38.652Z,67.27
2019-01-19T02:28:19.266Z,67.76
2019-01-19T02:28:59.890Z,67.66
2019-01-19T02:29:40.491Z,67.76
2019-01-19T02:30:21.103Z,67.76
2019-01-19T02:31:01.719Z,67.56
2019-01-19T02:31:42.357Z,67.56
2019-01-19T02:32:22.955Z,67.66
2019-01-19T02:33:03.594Z,67.47
2019-01-19T02:33:44.180Z,67.56
2019-01-19T02:34:24.788Z,67.27
2019-01-19T02:35:05.403Z,67.76
2019-01-19T02:35:48.493Z,67.66
2019-01-19T02:36:26.619Z,67.37
2019-01-19T02:37:07.225Z,67.18
2019-01-19T02:37:47.838Z,67.18
2019-01-19T02:38:28.465Z,67.47
2019-01-19T02:39:09.094Z,66.89
2019-01-19T02:39:49.714Z,66.8
2019-01-19T02:40:30.337Z,67.18
2019-01-19T02:41:10.969Z,66.8
2019-01-19T02:41:51.585Z,67.56
2019-01-19T02:42:32.224Z,67.08
2019-01-19T02:43:12.839Z,67.08
2019-01-19T02:43:53.487Z,67.08
2019-01-19T02:44:34.098Z,66.89
2019-01-19T02:45:14.792Z,66.99
2019-01-19T02:45:55.392Z,67.18
2019-01-19T02:46:35.988Z,66.89
2019-01-19T02:47:16.595Z,66.99
2019-01-19T02:47:57.207Z,66.7
2019-01-19T02:48:37.821Z,66.8
2019-01-19T02:49:18.463Z,66.99
2019-01-19T02:49:59.075Z,66.8
2019-01-19T02:50:39.684Z,66.7
2019-01-19T02:51:20.501Z,66.99
2019-01-19T02:52:01.115Z,66.89
2019-01-19T02:52:41.720Z,66.99
2019-01-19T02:53:22.359Z,66.89
2019-01-19T02:54:02.983Z,66.89
2019-01-19T02:54:43.631Z,66.99
2019-01-19T02:55:24.333Z,66.99
2019-01-19T02:56:04.996Z,67.56
2019-01-19T02:56:45.875Z,66.99
2019-01-19T02:57:26.527Z,66.89
2019-01-19T02:58:07.275Z,67.18
2019-01-19T02:58:47.877Z,66.99
2019-01-19T02:59:28.493Z,66.89
2019-01-19T03:00:09.147Z,67.08
2019-01-19T03:00:49.744Z,67.08
2019-01-19T03:01:30.374Z,66.99
2019-01-19T03:02:10.979Z,67.08
2019-01-19T03:02:51.615Z,66.99
2019-01-19T03:03:32.223Z,66.8
2019-01-19T03:04:12.839Z,66.89
2019-01-19T03:04:53.426Z,67.18
2019-01-19T03:05:34.037Z,67.18
2019-01-19T03:06:14.663Z,66.89
2019-01-19T03:06:55.278Z,67.18
2019-01-19T03:07:35.867Z,66.61
2019-01-19T03:08:16.475Z,66.7
2019-01-19T03:08:57.116Z,66.99
2019-01-19T03:09:37.737Z,66.8
2019-01-19T03:10:18.349Z,66.89
2019-01-19T03:10:58.949Z,66.61
2019-01-19T03:11:39.555Z,67.18
2019-01-19T03:12:20.194Z,67.27
2019-01-19T03:13:00.819Z,66.89
2019-01-19T03:13:41.445Z,67.37
2019-01-19T03:14:22.082Z,67.18
2019-01-19T03:15:02.692Z,66.61
2019-01-19T03:15:43.299Z,66.7
2019-01-19T03:16:23.913Z,66.51
2019-01-19T03:17:04.564Z,67.18
2019-01-19T03:17:45.182Z,67.27
2019-01-19T03:18:25.831Z,66.51
2019-01-19T03:19:06.453Z,66.51
2019-01-19T03:19:47.061Z,66.7
2019-01-19T03:20:27.741Z,66.51
2019-01-19T03:21:08.320Z,66.61
2019-01-19T03:21:48.933Z,66.61
2019-01-19T03:22:29.568Z,66.51
2019-01-19T03:23:10.167Z,66.61
2019-01-19T03:23:50.781Z,66.51
2019-01-19T03:24:31.398Z,66.61
2019-01-19T03:25:12.015Z,66.41
2019-01-19T03:25:52.659Z,66.61
2019-01-19T03:26:33.279Z,66.61
2019-01-19T03:27:13.925Z,66.51
2019-01-19T03:27:54.535Z,66.8
2019-01-19T03:28:35.145Z,66.8
2019-01-19T03:29:15.775Z,66.51
2019-01-19T03:29:56.389Z,66.89
2019-01-19T03:30:37.004Z,66.41
2019-01-19T03:31:17.651Z,66.8
2019-01-19T03:31:58.252Z,66.89
2019-01-19T03:32:38.856Z,66.61
2019-01-19T03:33:19.463Z,66.51
2019-01-19T03:34:00.065Z,66.7
2019-01-19T03:34:40.697Z,66.89
2019-01-19T03:35:21.319Z,66.7
2019-01-19T03:36:04.431Z,66.61
2019-01-19T03:36:42.550Z,66.89
2019-01-19T03:37:23.155Z,66.7
2019-01-19T03:38:03.764Z,66.8
2019-01-19T03:38:44.377Z,66.8
2019-01-19T03:39:24.979Z,66.89
2019-01-19T03:40:05.638Z,66.89
2019-01-19T03:40:46.267Z,66.51
2019-01-19T03:41:26.883Z,66.89
2019-01-19T03:42:07.525Z,66.8
2019-01-19T03:42:48.131Z,66.22
2019-01-19T03:43:28.739Z,66.22
2019-01-19T03:44:09.392Z,66.8
2019-01-19T03:44:49.999Z,66.41
2019-01-19T03:45:30.631Z,66.8
2019-01-19T03:46:11.224Z,66.61
2019-01-19T03:46:51.844Z,66.03
2019-01-19T03:47:32.451Z,66.22
2019-01-19T03:48:13.047Z,66.03
2019-01-19T03:48:53.661Z,66.7
2019-01-19T03:49:34.273Z,66.41
2019-01-19T03:50:14.893Z,66.32
2019-01-19T03:50:55.491Z,66.03
2019-01-19T03:51:36.097Z,66.89
2019-01-19T03:52:16.717Z,66.61
2019-01-19T03:52:57.351Z,66.99
2019-01-19T03:53:37.973Z,66.41
2019-01-19T03:54:18.571Z,66.32
2019-01-19T03:54:59.211Z,66.8
2019-01-19T03:55:39.829Z,66.61
2019-01-19T03:56:20.443Z,66.41
2019-01-19T03:57:01.065Z,66.61
2019-01-19T03:57:41.677Z,66.22
2019-01-19T03:58:22.299Z,66.32
2019-01-19T03:59:02.941Z,66.41
2019-01-19T03:59:43.545Z,66.32
2019-01-19T04:00:24.155Z,66.51
2019-01-19T04:01:04.763Z,66.28
2019-01-19T04:01:45.373Z,66.32
2019-01-19T04:02:25.999Z,66.03
2019-01-19T04:03:06.614Z,66.41
2019-01-19T04:03:47.223Z,66.32
2019-01-19T04:04:27.837Z,66.32
2019-01-19T04:05:08.479Z,66.22
2019-01-19T04:05:49.089Z,66.22
2019-01-19T04:06:29.714Z,66
2019-01-19T04:07:10.319Z,66.32
2019-01-19T04:07:50.943Z,66.7
2019-01-19T04:08:31.556Z,66.41
2019-01-19T04:09:12.183Z,66.41
2019-01-19T04:09:52.795Z,65.84
2019-01-19T04:10:33.429Z,66.32
2019-01-19T04:11:14.035Z,65.74
2019-01-19T04:11:54.697Z,65.84
2019-01-19T04:12:35.321Z,66.41
2019-01-19T04:13:15.957Z,66.41
2019-01-19T04:13:56.571Z,66.41
2019-01-19T04:14:37.185Z,66.67
2019-01-19T04:15:17.795Z,66.22
2019-01-19T04:15:58.406Z,66.38
2019-01-19T04:16:39.031Z,66.67
2019-01-19T04:17:19.633Z,66.7
2019-01-19T04:18:00.239Z,65.94
2019-01-19T04:18:40.871Z,66.7
2019-01-19T04:19:21.497Z,66.7
2019-01-19T04:20:02.140Z,66.61
2019-01-19T04:20:42.781Z,66.22
2019-01-19T04:21:23.408Z,66.47
2019-01-19T04:22:04.038Z,66.67
2019-01-19T04:22:44.673Z,66.7
2019-01-19T04:23:25.304Z,66.51
2019-01-19T04:24:05.911Z,66.22
2019-01-19T04:24:46.529Z,66.47
2019-01-19T04:25:27.226Z,66.41
2019-01-19T04:26:07.831Z,66.41
2019-01-19T04:26:49.237Z,66.51
2019-01-19T04:27:29.751Z,66.19
2019-01-19T04:28:10.362Z,66.32
2019-01-19T04:28:50.985Z,66.41
2019-01-19T04:29:31.811Z,65.9
2019-01-19T04:30:12.419Z,66.41
2019-01-19T04:30:53.018Z,65.52
2019-01-19T04:31:33.815Z,65.9
2019-01-19T04:32:14.482Z,65.94
2019-01-19T04:32:55.095Z,65.9
2019-01-19T04:33:35.711Z,66.19
2019-01-19T04:34:16.330Z,66.22
2019-01-19T04:34:57.084Z,66.22
2019-01-19T04:35:37.766Z,65.94
2019-01-19T04:36:21.595Z,66.22
2019-01-19T04:36:58.918Z,66
2019-01-19T04:37:39.520Z,66.13
2019-01-19T04:38:20.119Z,65.65
2019-01-19T04:39:00.721Z,66.28
2019-01-19T04:39:41.357Z,65.84
2019-01-19T04:40:21.979Z,66.19
2019-01-19T04:41:02.576Z,66.61
2019-01-19T04:41:43.201Z,65.84
2019-01-19T04:42:23.811Z,65.65
2019-01-19T04:43:04.423Z,65.71
2019-01-19T04:43:45.027Z,65.9
2019-01-19T04:44:25.633Z,65.94
2019-01-19T04:45:06.227Z,65.9
2019-01-19T04:45:46.833Z,66
2019-01-19T04:46:27.454Z,66.32
2019-01-19T04:47:08.178Z,66
2019-01-19T04:47:48.847Z,66.22
2019-01-19T04:48:29.489Z,65.61
2019-01-19T04:49:10.129Z,66.19
2019-01-19T04:49:50.757Z,65.9
2019-01-19T04:50:31.413Z,65.9
2019-01-19T04:51:12.003Z,65.55
2019-01-19T04:51:52.605Z,65.94
2019-01-19T04:52:33.209Z,66.03
2019-01-19T04:53:13.824Z,65.84
2019-01-19T04:53:55.075Z,65.71
2019-01-19T04:54:35.083Z,66
2019-01-19T04:55:15.714Z,66.13
2019-01-19T04:55:56.319Z,66
2019-01-19T04:56:36.949Z,65.9
2019-01-19T04:57:17.591Z,66.19
2019-01-19T04:57:58.145Z,66.09
2019-01-19T04:58:38.760Z,65.9
2019-01-19T04:59:19.375Z,66.09
2019-01-19T04:59:59.997Z,66.03
2019-01-19T05:00:40.630Z,66.28
2019-01-19T05:01:21.244Z,66.28
2019-01-19T05:02:01.897Z,65.61
2019-01-19T05:02:42.499Z,66.28
2019-01-19T05:03:23.395Z,66.19
2019-01-19T05:04:03.760Z,65.52
2019-01-19T05:04:44.359Z,66.09
2019-01-19T05:05:24.971Z,66
2019-01-19T05:06:11.923Z,66.28
2019-01-19T05:06:46.237Z,66.47
2019-01-19T05:07:26.845Z,66.28
2019-01-19T05:08:07.447Z,66
2019-01-19T05:08:48.305Z,66.28
2019-01-19T05:09:28.890Z,66.09
2019-01-19T05:10:09.499Z,66.47
2019-01-19T05:10:50.141Z,66.47
2019-01-19T05:11:30.750Z,66.28
2019-01-19T05:12:11.357Z,66.09
2019-01-19T05:12:52.051Z,66.19
2019-01-19T05:13:32.663Z,65.81
2019-01-19T05:14:13.411Z,65.9
2019-01-19T05:14:54.040Z,65.81
2019-01-19T05:15:34.652Z,65.9
2019-01-19T05:16:15.263Z,66.09
2019-01-19T05:16:55.872Z,65.81
2019-01-19T05:17:36.481Z,66.47
2019-01-19T05:18:17.079Z,66.28
2019-01-19T05:18:57.683Z,66.38
2019-01-19T05:19:38.295Z,66.09
2019-01-19T05:20:18.986Z,66
2019-01-19T05:20:59.515Z,65.71
2019-01-19T05:21:40.120Z,66.09
2019-01-19T05:22:20.733Z,66.38
2019-01-19T05:23:01.345Z,65.71
2019-01-19T05:23:42.036Z,66
2019-01-19T05:24:22.675Z,66.19
2019-01-19T05:25:03.283Z,66.09
2019-01-19T05:25:43.895Z,65.9
2019-01-19T05:26:24.498Z,65.9
2019-01-19T05:27:05.117Z,66.09
2019-01-19T05:27:45.745Z,65.33
2019-01-19T05:28:26.337Z,65.52
2019-01-19T05:29:06.953Z,65.9
2019-01-19T05:29:47.592Z,66
2019-01-19T05:30:28.262Z,65.9
2019-01-19T05:31:08.917Z,65.61
2019-01-19T05:31:49.516Z,65.61
2019-01-19T05:32:30.161Z,65.81
2019-01-19T05:33:10.765Z,65.52
2019-01-19T05:33:51.673Z,66.09
2019-01-19T05:34:32.279Z,65.33
2019-01-19T05:35:12.875Z,65.71
2019-01-19T05:35:53.482Z,66.09
2019-01-19T05:36:38.385Z,65.23
2019-01-19T05:37:14.763Z,66
2019-01-19T05:37:55.677Z,65.33
2019-01-19T05:38:36.287Z,65.33
2019-01-19T05:39:16.889Z,65.61
2019-01-19T05:39:57.491Z,65.33
2019-01-19T05:40:38.118Z,65.52
2019-01-19T05:41:18.734Z,65.61
2019-01-19T05:41:59.357Z,65.52
2019-01-19T05:42:39.965Z,65.33
2019-01-19T05:43:20.580Z,65.61
2019-01-19T05:44:01.244Z,65.61
2019-01-19T05:44:41.889Z,65.61
2019-01-19T05:45:22.498Z,65.42
2019-01-19T05:46:03.107Z,65.61
2019-01-19T05:46:43.721Z,65.71
2019-01-19T05:47:24.331Z,65.61
2019-01-19T05:48:05.182Z,65.71
2019-01-19T05:48:45.842Z,65.61
2019-01-19T05:49:26.443Z,65.42
2019-01-19T05:50:07.101Z,65.9
2019-01-19T05:50:47.706Z,65.9
2019-01-19T05:51:28.319Z,65.61
2019-01-19T05:52:08.970Z,65.42
2019-01-19T05:52:49.588Z,65.42
2019-01-19T05:53:30.197Z,65.61
2019-01-19T05:54:10.808Z,65.61
2019-01-19T05:54:51.418Z,65.42
2019-01-19T05:55:32.038Z,65.9
2019-01-19T05:56:12.680Z,65.71
2019-01-19T05:56:53.278Z,65.52
2019-01-19T05:57:33.876Z,65.42
2019-01-19T05:58:14.476Z,65.33
2019-01-19T05:58:55.080Z,65.33
2019-01-19T05:59:35.677Z,65.33
2019-01-19T06:00:16.322Z,65.61
2019-01-19T06:00:56.945Z,65.42
2019-01-19T06:01:37.560Z,65.52
2019-01-19T06:02:18.166Z,65.52
2019-01-19T06:02:58.798Z,65.61
2019-01-19T06:03:39.407Z,65.61
2019-01-19T06:04:20.018Z,65.42
2019-01-19T06:05:00.628Z,65.61
2019-01-19T06:05:41.236Z,65.9
2019-01-19T06:06:21.844Z,65.42
2019-01-19T06:07:02.463Z,65.61
2019-01-19T06:07:43.066Z,65.71
2019-01-19T06:08:23.670Z,65.61
2019-01-19T06:09:04.274Z,65.9
2019-01-19T06:09:44.882Z,65.52
2019-01-19T06:10:25.509Z,65.52
2019-01-19T06:11:06.148Z,65.71
2019-01-19T06:11:46.768Z,65.42
2019-01-19T06:12:27.378Z,65.9
2019-01-19T06:13:07.989Z,65.9
2019-01-19T06:13:48.605Z,65.71
2019-01-19T06:14:29.218Z,65.42
2019-01-19T06:15:09.817Z,65.61
2019-01-19T06:15:50.418Z,65.52
2019-01-19T06:16:31.034Z,65.71
2019-01-19T06:17:11.687Z,65.61
2019-01-19T06:17:52.293Z,65.61
2019-01-19T06:18:32.916Z,65.52
2019-01-19T06:19:13.546Z,65.42
2019-01-19T06:19:54.151Z,65.42
2019-01-19T06:20:34.748Z,65.42
2019-01-19T06:21:15.338Z,65.61
2019-01-19T06:21:55.958Z,65.23
2019-01-19T06:22:36.559Z,65.42
2019-01-19T06:23:17.166Z,65.61
2019-01-19T06:23:57.771Z,65.71
2019-01-19T06:24:38.410Z,65.33
2019-01-19T06:25:19.016Z,65.42
2019-01-19T06:25:59.649Z,65.23
2019-01-19T06:26:40.249Z,65.42
2019-01-19T06:27:20.920Z,65.52
2019-01-19T06:28:01.535Z,66
2019-01-19T06:28:42.247Z,65.23
2019-01-19T06:29:22.947Z,65.81
2019-01-19T06:30:03.574Z,65.61
2019-01-19T06:30:44.232Z,65.61
2019-01-19T06:31:24.918Z,65.42
2019-01-19T06:32:05.572Z,65.42
2019-01-19T06:32:46.228Z,65.33
2019-01-19T06:33:26.944Z,65.52
2019-01-19T06:34:07.618Z,65.33
2019-01-19T06:34:48.264Z,65.52
2019-01-19T06:35:28.939Z,65.61
2019-01-19T06:36:09.658Z,65.61
2019-01-19T06:36:54.795Z,65.61
2019-01-19T06:37:31.033Z,65.71
2019-01-19T06:38:11.689Z,65.42
2019-01-19T06:38:52.352Z,65.71
2019-01-19T06:39:32.984Z,65.9
2019-01-19T06:40:13.612Z,65.9
2019-01-19T06:40:54.299Z,65.81
2019-01-19T06:41:34.982Z,65.9
2019-01-19T06:42:15.726Z,65.52
2019-01-19T06:42:56.396Z,65.33
2019-01-19T06:43:37.082Z,65.52
2019-01-19T06:44:17.716Z,65.42
2019-01-19T06:44:58.336Z,65.81
2019-01-19T06:45:38.992Z,65.14
2019-01-19T06:46:19.666Z,65.61
2019-01-19T06:47:00.314Z,65.9
2019-01-19T06:47:40.994Z,65.71
2019-01-19T06:48:21.622Z,65.52
2019-01-19T06:49:02.232Z,65.14
2019-01-19T06:49:42.952Z,64.75
2019-01-19T06:50:23.690Z,65.14
2019-01-19T06:51:04.271Z,65.81
2019-01-19T06:51:44.918Z,65.42
2019-01-19T06:52:25.617Z,65.52
2019-01-19T06:53:06.276Z,65.33
2019-01-19T06:53:46.878Z,65.42
2019-01-19T06:54:27.520Z,65.9
2019-01-19T06:55:08.235Z,65.42
2019-01-19T06:55:48.840Z,65.23
2019-01-19T06:56:29.500Z,64.95
2019-01-19T06:57:10.229Z,65.23
2019-01-19T06:57:50.864Z,65.23
2019-01-19T06:58:31.486Z,65.71
2019-01-19T06:59:17.281Z,65.14
2019-01-19T06:59:52.732Z,64.85
2019-01-19T07:00:33.442Z,65.14
2019-01-19T07:01:14.063Z,64.66
2019-01-19T07:01:54.669Z,64.85
2019-01-19T07:02:35.487Z,65.04
2019-01-19T07:03:16.168Z,64.85
2019-01-19T07:03:56.787Z,65.14
2019-01-19T07:04:37.565Z,64.85
2019-01-19T07:05:18.159Z,64.85
2019-01-19T07:05:58.788Z,65.04
2019-01-19T07:06:39.417Z,64.85
2019-01-19T07:07:20.202Z,65.23
2019-01-19T07:08:00.837Z,64.95
2019-01-19T07:08:41.452Z,65.04
2019-01-19T07:09:22.060Z,64.75
2019-01-19T07:10:02.711Z,65.33
2019-01-19T07:10:43.411Z,65.14
2019-01-19T07:11:24.219Z,65.14
2019-01-19T07:12:04.880Z,64.85
2019-01-19T07:12:45.585Z,65.14
2019-01-19T07:13:26.194Z,65.33
2019-01-19T07:14:06.802Z,64.95
2019-01-19T07:14:47.432Z,64.85
2019-01-19T07:15:28.050Z,64.95
2019-01-19T07:16:08.655Z,64.75
2019-01-19T07:16:49.307Z,64.95
2019-01-19T07:17:29.950Z,64.75
2019-01-19T07:18:10.560Z,65.04
2019-01-19T07:18:51.171Z,65.23
2019-01-19T07:19:31.803Z,64.85
2019-01-19T07:20:12.416Z,64.85
2019-01-19T07:20:53.026Z,65.14
2019-01-19T07:21:33.745Z,64.75
2019-01-19T07:22:14.362Z,65.23
2019-01-19T07:22:54.962Z,65.23
2019-01-19T07:23:35.578Z,64.85
2019-01-19T07:24:16.190Z,64.85
2019-01-19T07:24:56.817Z,64.75
2019-01-19T07:25:37.446Z,65.14
2019-01-19T07:26:18.080Z,65.42
2019-01-19T07:26:58.698Z,65.42
2019-01-19T07:27:39.310Z,65.23
2019-01-19T07:28:19.928Z,65.23
2019-01-19T07:29:00.537Z,65.23
2019-01-19T07:29:41.176Z,65.04
2019-01-19T07:30:21.790Z,64.95
2019-01-19T07:31:02.434Z,64.95
2019-01-19T07:31:43.044Z,65.42
2019-01-19T07:32:23.654Z,65.23
2019-01-19T07:33:04.294Z,64.85
2019-01-19T07:33:44.900Z,65.23
2019-01-19T07:34:25.511Z,64.85
2019-01-19T07:35:06.120Z,64.75
2019-01-19T07:35:46.708Z,64.95
2019-01-19T07:36:27.348Z,65.04
2019-01-19T07:37:09.823Z,65.14
2019-01-19T07:37:48.570Z,65.14
2019-01-19T07:38:29.181Z,64.85
2019-01-19T07:39:09.783Z,64.85
2019-01-19T07:39:50.384Z,64.85
2019-01-19T07:40:30.996Z,64.95
2019-01-19T07:41:11.624Z,65.04
2019-01-19T07:41:52.227Z,65.14
2019-01-19T07:42:33.992Z,64.85
2019-01-19T07:43:13.447Z,65.14
2019-01-19T07:43:54.054Z,65.23
2019-01-19T07:44:34.688Z,65.14
2019-01-19T07:45:15.341Z,65.14
2019-01-19T07:45:55.941Z,65.04
2019-01-19T07:46:36.544Z,65.04
2019-01-19T07:47:17.156Z,65.14
2019-01-19T07:47:57.804Z,65.23
2019-01-19T07:48:38.472Z,65.14
2019-01-19T07:49:19.111Z,64.95
2019-01-19T07:49:59.711Z,64.95
2019-01-19T07:50:40.316Z,64.85
2019-01-19T07:51:20.925Z,65.04
2019-01-19T07:52:01.582Z,65.23
2019-01-19T07:52:42.264Z,65.23
2019-01-19T07:53:22.878Z,65.33
2019-01-19T07:54:03.486Z,65.14
2019-01-19T07:54:44.092Z,65.04
2019-01-19T07:55:24.690Z,65.04
2019-01-19T07:56:05.280Z,65.04
2019-01-19T07:56:45.908Z,65.33
2019-01-19T07:57:31.156Z,64.95
2019-01-19T07:58:07.208Z,65.14
2019-01-19T07:58:47.808Z,65.33
2019-01-19T07:59:28.411Z,64.56
2019-01-19T08:00:09.042Z,64.66
2019-01-19T08:00:49.664Z,65.23
2019-01-19T08:01:30.264Z,64.85
2019-01-19T08:02:10.904Z,65.42
2019-01-19T08:02:51.510Z,64.56
2019-01-19T08:03:32.129Z,65.14
2019-01-19T08:04:12.723Z,65.42
2019-01-19T08:04:53.324Z,64.95
2019-01-19T08:05:33.958Z,64.85
2019-01-19T08:06:14.565Z,65.14
2019-01-19T08:06:55.163Z,64.37
2019-01-19T08:07:35.776Z,64.75
2019-01-19T08:08:16.385Z,64.85
2019-01-19T08:08:57.004Z,64.66
2019-01-19T08:09:37.692Z,64.95
2019-01-19T08:10:18.336Z,64.66
2019-01-19T08:10:58.991Z,64.85
2019-01-19T08:11:39.580Z,64.75
2019-01-19T08:12:20.195Z,64.66
2019-01-19T08:13:00.808Z,64.66
2019-01-19T08:13:41.400Z,64.4
2019-01-19T08:14:22.006Z,64.66
2019-01-19T08:15:02.612Z,64.28
2019-01-19T08:15:43.236Z,65.14
2019-01-19T08:16:23.848Z,65.14
2019-01-19T08:17:04.460Z,64.37
2019-01-19T08:17:45.070Z,65.14
2019-01-19T08:18:25.676Z,64.85
2019-01-19T08:19:06.318Z,64.85
2019-01-19T08:19:46.923Z,65.23
2019-01-19T08:20:27.567Z,65.23
2019-01-19T08:21:08.172Z,64.47
2019-01-19T08:21:48.790Z,64.95
2019-01-19T08:22:29.388Z,64.47
2019-01-19T08:23:09.988Z,65.14
2019-01-19T08:23:50.622Z,64.95
2019-01-19T08:24:31.238Z,65.23
2019-01-19T08:25:11.882Z,64.66
2019-01-19T08:25:52.502Z,64.75
2019-01-19T08:26:33.116Z,64.56
2019-01-19T08:27:13.703Z,64.95
2019-01-19T08:27:54.302Z,64.28
2019-01-19T08:28:34.900Z,64.37
2019-01-19T08:29:15.506Z,64.85
2019-01-19T08:29:56.125Z,64.56
2019-01-19T08:30:36.731Z,64.75
2019-01-19T08:31:17.358Z,64.56
2019-01-19T08:31:57.976Z,65.33
2019-01-19T08:32:38.590Z,64.85
2019-01-19T08:33:19.274Z,64.95
2019-01-19T08:33:59.888Z,64.18
2019-01-19T08:34:40.520Z,64.95
2019-01-19T08:35:21.152Z,64.37
2019-01-19T08:36:01.752Z,64.85
2019-01-19T08:36:42.446Z,64.47
2019-01-19T08:37:24.469Z,64.95
2019-01-19T08:38:03.625Z,64.66
2019-01-19T08:38:44.232Z,64.95
2019-01-19T08:39:24.830Z,64.85
2019-01-19T08:40:05.436Z,64.85
2019-01-19T08:40:46.046Z,64.66
2019-01-19T08:41:26.650Z,64.56
2019-01-19T08:42:07.273Z,64.85
2019-01-19T08:42:47.872Z,65.23
2019-01-19T08:43:28.490Z,64.85
2019-01-19T08:44:09.182Z,64.47
2019-01-19T08:44:49.786Z,64.37
2019-01-19T08:45:30.404Z,65.17
2019-01-19T08:46:11.006Z,64.85
2019-01-19T08:46:51.626Z,64.37
2019-01-19T08:47:32.234Z,64.47
2019-01-19T08:48:12.862Z,64.09
2019-01-19T08:48:53.470Z,64.69